Minerva Concert — SVWC — position and weather

sailwx.info

Track history (hours):
 
Tides and Currents Weather Stations Pressure Air Temp Water Temp Dewpoint Dewpoint Depression Visibility Wind Speed Wind Dir Waves Ship Positions

Minerva Concert

Last reported at 2015-Jan-20 18:26 UTC. Time now 2015-Jan-30 15:34 UTC.
Position N 26°49' W 079°37'.
Warning: this ship's position is 9 days out of date.

Length 240 m; draft 12.4 m.

Type: Tanker. MMSI: 240110000.

Date/timePositionNaut miles runAvg speedWind from/ knotsBaromVisibWave heightAir tempDewpointWater temp
2015-Jan-20 18:26N 26°49' W 079°37'1113.0
2015-Jan-20 17:33N 26°38' W 079°38'1312.9
2015-Jan-20 16:33N 26°25' W 079°39'1312.9
2015-Jan-20 15:33N 26°12' W 079°40'1312.9
2015-Jan-20 14:33N 25°59' W 079°41'1312.7
2015-Jan-20 13:33N 25°47' W 079°42'  
2015-Jan-16 23:33N 29°23' W 094°49'9 9.1
2015-Jan-16 22:33N 29°31' W 094°53'9 9.1
2015-Jan-16 21:33N 29°39' W 094°58'6 5.8
2015-Jan-16 20:33N 29°44' W 095°02'5 4.5
2015-Jan-16 19:33N 29°44' W 095°07'0 0.0
2015-Jan-15 15:31N 29°44' W 095°08'0 0.0
2015-Jan-15 14:31N 29°44' W 095°08'0 0.0
2015-Jan-14 16:07N 29°44' W 095°08'0 0.0
2015-Jan-14 15:31N 29°44' W 095°08'0 0.0
2015-Jan-14 14:31N 29°44' W 095°08'0 0.0
2015-Jan-14 02:13N 29°44' W 095°08'0 0.0
2015-Jan-14 01:26N 29°44' W 095°08'0 0.0
2015-Jan-14 00:31N 29°44' W 095°08'0 0.0
2015-Jan-13 23:31N 29°44' W 095°08'0 0.0
2015-Jan-13 22:31N 29°44' W 095°08'0 0.0
2015-Jan-13 21:31N 29°44' W 095°08'0 0.0
2015-Jan-13 19:29N 29°44' W 095°08'0 0.0
2015-Jan-13 18:32N 29°44' W 095°08'0 0.0
2015-Jan-13 17:32N 29°44' W 095°08'0 0.0
2015-Jan-13 16:32N 29°44' W 095°08'0 0.0
2015-Jan-13 15:32N 29°44' W 095°08'0 0.0
2015-Jan-13 14:32N 29°44' W 095°08'0 0.0
2015-Jan-13 13:32N 29°44' W 095°08'0 0.0
2015-Jan-13 12:32N 29°44' W 095°08'0 0.0
2015-Jan-13 11:32N 29°44' W 095°08'0 0.0
2015-Jan-13 10:32N 29°44' W 095°08'0 0.0
2015-Jan-13 09:32N 29°44' W 095°08'0 0.0
2015-Jan-13 08:32N 29°44' W 095°08'0 0.0
2015-Jan-13 07:32N 29°44' W 095°08'0 0.0
2015-Jan-13 06:32N 29°44' W 095°08'0 0.0
2015-Jan-13 05:32N 29°44' W 095°08'0 0.0
2015-Jan-13 04:32N 29°44' W 095°08'0 0.0
2015-Jan-13 03:32N 29°44' W 095°08'1 0.9
2015-Jan-13 02:34N 29°44' W 095°07'5 4.9
2015-Jan-13 01:33N 29°43' W 095°01'8 8.4
2015-Jan-13 00:33N 29°36' W 094°57'1110.6
2015-Jan-12 23:33N 29°27' W 094°50'9 8.7
2015-Jan-12 22:34N 29°21' W 094°43'  
Track history (hours):
 
Tides and Currents Weather Stations Pressure Air Temp Water Temp Dewpoint Dewpoint Depression Visibility Wind Speed Wind Dir Waves Ship Positions

Minerva Concert

Last reported at 2015-Jan-20 18:26 UTC. Time now 2015-Jan-30 15:34 UTC.
Position N 26°49' W 079°37'.
Warning: this ship's position is 9 days out of date.

Length 240 m; draft 12.4 m.

Type: Tanker. MMSI: 240110000.

Date/timePositionNaut miles runAvg speedWind from/ knotsBaromVisibWave heightAir tempDewpointWater temp
2015-Jan-20 18:26N 26°49' W 079°37'1113.0
2015-Jan-20 17:33N 26°38' W 079°38'1312.9
2015-Jan-20 16:33N 26°25' W 079°39'1312.9
2015-Jan-20 15:33N 26°12' W 079°40'1312.9
2015-Jan-20 14:33N 25°59' W 079°41'1312.7
2015-Jan-20 13:33N 25°47' W 079°42'  
2015-Jan-16 23:33N 29°23' W 094°49'9 9.1
2015-Jan-16 22:33N 29°31' W 094°53'9 9.1
2015-Jan-16 21:33N 29°39' W 094°58'6 5.8
2015-Jan-16 20:33N 29°44' W 095°02'5 4.5
2015-Jan-16 19:33N 29°44' W 095°07'0 0.0
2015-Jan-15 15:31N 29°44' W 095°08'0 0.0
2015-Jan-15 14:31N 29°44' W 095°08'0 0.0
2015-Jan-14 16:07N 29°44' W 095°08'0 0.0
2015-Jan-14 15:31N 29°44' W 095°08'0 0.0
2015-Jan-14 14:31N 29°44' W 095°08'0 0.0
2015-Jan-14 02:13N 29°44' W 095°08'0 0.0
2015-Jan-14 01:26N 29°44' W 095°08'0 0.0
2015-Jan-14 00:31N 29°44' W 095°08'0 0.0
2015-Jan-13 23:31N 29°44' W 095°08'0 0.0
2015-Jan-13 22:31N 29°44' W 095°08'0 0.0
2015-Jan-13 21:31N 29°44' W 095°08'0 0.0
2015-Jan-13 19:29N 29°44' W 095°08'0 0.0
2015-Jan-13 18:32N 29°44' W 095°08'0 0.0
2015-Jan-13 17:32N 29°44' W 095°08'0 0.0
2015-Jan-13 16:32N 29°44' W 095°08'0 0.0
2015-Jan-13 15:32N 29°44' W 095°08'0 0.0
2015-Jan-13 14:32N 29°44' W 095°08'0 0.0
2015-Jan-13 13:32N 29°44' W 095°08'0 0.0
2015-Jan-13 12:32N 29°44' W 095°08'0 0.0
2015-Jan-13 11:32N 29°44' W 095°08'0 0.0
2015-Jan-13 10:32N 29°44' W 095°08'0 0.0
2015-Jan-13 09:32N 29°44' W 095°08'0 0.0
2015-Jan-13 08:32N 29°44' W 095°08'0 0.0
2015-Jan-13 07:32N 29°44' W 095°08'0 0.0
2015-Jan-13 06:32N 29°44' W 095°08'0 0.0
2015-Jan-13 05:32N 29°44' W 095°08'0 0.0
2015-Jan-13 04:32N 29°44' W 095°08'0 0.0
2015-Jan-13 03:32N 29°44' W 095°08'1 0.9
2015-Jan-13 02:34N 29°44' W 095°07'5 4.9
2015-Jan-13 01:33N 29°43' W 095°01'8 8.4
2015-Jan-13 00:33N 29°36' W 094°57'1110.6
2015-Jan-12 23:33N 29°27' W 094°50'9 8.7
2015-Jan-12 22:34N 29°21' W 094°43'  

Dump ship's entire track history